Time;durP1;ratioP1;P1;durP2;ratioP2;P2;SDS_P1;SDS_P2;PMS_P1;PMS_P2;Temp;Humidity;BMP_temperature;BMP_pressure;BME280_temperature;BME280_humidity;BME280_pressure;Samples;Min_cycle;Max_cycle;Signal;HPM_P1;HPM_P2
2023/11/06 00:00:16;;;;;;;5.82;0.65;;;;;;;15.61;67.16;93115.81;5064237;28;20028;-71
2023/11/06 00:02:41;;;;;;;5.38;0.73;;;;;;;15.65;67.06;93122.03;5064164;28;20029;-71
2023/11/06 00:05:08;;;;;;;5.25;0.73;;;;;;;15.72;67.56;93129.44;5064031;28;20044;-71
2023/11/06 00:07:34;;;;;;;3.72;0.52;;;;;;;15.73;66.14;93126.38;5064056;28;20024;-71
2023/11/06 00:09:59;;;;;;;2.75;0.75;;;;;;;15.66;65.88;93123.59;5064030;28;20224;-71
2023/11/06 00:12:26;;;;;;;2.25;0.50;;;;;;;15.57;65.66;93131.91;5063932;28;20264;-71
2023/11/06 00:14:52;;;;;;;4.50;1.33;;;;;;;15.65;70.45;93135.47;5096468;28;20020;-71
2023/11/06 00:17:17;;;;;;;3.58;1.33;;;;;;;15.30;73.39;93138.41;5063871;28;20027;-71
2023/11/06 00:19:43;;;;;;;8.90;1.90;;;;;;;15.30;74.72;93144.53;5063949;28;20017;-71
2023/11/06 00:22:09;;;;;;;10.93;1.55;;;;;;;15.29;76.43;93132.25;5063631;28;20311;-71
2023/11/06 00:24:36;;;;;;;4.72;1.70;;;;;;;15.28;77.55;93154.84;5063652;28;20027;-71
2023/11/06 00:27:01;;;;;;;2.97;1.73;;;;;;;15.25;77.85;93155.59;5063632;28;20028;-72
2023/11/06 00:29:29;;;;;;;5.40;1.50;;;;;;;15.22;78.33;93175.09;5063873;28;20033;-71
2023/11/06 00:31:55;;;;;;;6.30;2.28;;;;;;;15.20;78.38;93171.97;5063575;28;20032;-72
2023/11/06 00:34:20;;;;;;;5.15;1.50;;;;;;;15.14;78.73;93168.06;5063345;28;20234;-71
2023/11/06 00:36:46;;;;;;;6.03;1.85;;;;;;;15.09;79.11;93173.72;5063406;28;20031;-72
2023/11/06 00:39:13;;;;;;;10.15;1.67;;;;;;;15.07;79.32;93192.88;5063269;28;20108;-72
2023/11/06 00:41:40;;;;;;;5.30;2.22;;;;;;;15.05;79.57;93195.91;5063558;28;20092;-72
2023/11/06 00:44:06;;;;;;;7.63;2.08;;;;;;;15.01;79.60;93203.09;5063450;28;20036;-72
2023/11/06 00:46:31;;;;;;;10.10;2.00;;;;;;;14.91;80.11;93200.25;5063291;28;20134;-72
2023/11/06 00:48:57;;;;;;;12.70;2.35;;;;;;;14.92;80.56;93199.09;5063287;28;20033;-72
2023/11/06 00:51:22;;;;;;;11.15;2.58;;;;;;;14.92;81.24;93199.09;5061140;28;20035;-71
2023/11/06 00:53:48;;;;;;;6.63;2.47;;;;;;;14.79;81.41;93195.81;5063059;28;20291;-71
2023/11/06 00:56:13;;;;;;;8.52;2.90;;;;;;;14.72;82.51;93206.41;5063210;28;20095;-72
2023/11/06 00:58:39;;;;;;;11.32;2.70;;;;;;;14.63;82.68;93204.72;5063234;28;20025;-71
2023/11/06 01:01:05;;;;;;;7.10;3.10;;;;;;;14.58;83.38;93207.69;5062996;28;20339;-71
2023/11/06 01:03:32;;;;;;;6.65;3.20;;;;;;;14.52;83.94;93205.63;5063022;28;20029;-71
2023/11/06 01:05:58;;;;;;;9.48;2.90;;;;;;;14.50;83.96;93210.56;5063170;28;20043;-71
2023/11/06 01:08:24;;;;;;;9.45;2.88;;;;;;;14.43;84.09;93211.16;5062825;28;20037;-71
2023/11/06 01:10:50;;;;;;;7.18;2.60;;;;;;;14.41;83.93;93211.53;5062796;28;20024;-71
2023/11/06 01:13:15;;;;;;;7.07;2.25;;;;;;;14.33;84.02;93209.06;5062772;28;20036;-71
2023/11/06 01:15:42;;;;;;;7.65;2.28;;;;;;;14.22;84.29;93206.16;5062903;28;20021;-72
2023/11/06 01:18:07;;;;;;;10.63;2.60;;;;;;;14.15;84.11;93214.84;5062729;28;20024;-71
2023/11/06 01:20:33;;;;;;;9.80;2.30;;;;;;;14.11;83.50;93219.34;5062821;28;20088;-72
2023/11/06 01:22:59;;;;;;;4.88;1.88;;;;;;;14.07;83.24;93207.78;5062760;28;20017;-71
2023/11/06 01:25:24;;;;;;;7.50;1.42;;;;;;;14.02;81.20;93208.84;5062732;28;20101;-71
2023/11/06 01:27:50;;;;;;;8.10;2.88;;;;;;;14.08;80.93;93212.00;5062669;28;20036;-71
2023/11/06 01:30:15;;;;;;;4.78;1.75;;;;;;;14.07;80.98;93237.25;5061384;28;20024;-71
2023/11/06 01:32:41;;;;;;;5.40;1.70;;;;;;;14.09;81.53;93226.19;5062444;28;20356;-71
2023/11/06 01:35:06;;;;;;;5.10;1.42;;;;;;;14.11;81.74;93231.97;5062604;28;20021;-71
2023/11/06 01:37:32;;;;;;;5.45;1.48;;;;;;;14.06;81.59;93235.69;5062449;28;20211;-71
2023/11/06 01:39:57;;;;;;;8.18;1.27;;;;;;;14.09;80.57;93237.69;5062457;28;20037;-71
2023/11/06 01:42:22;;;;;;;3.75;1.23;;;;;;;14.12;76.59;93246.91;5062624;28;20091;-71
2023/11/06 01:44:48;;;;;;;6.57;0.88;;;;;;;14.12;72.29;93239.63;5062532;28;20052;-71
2023/11/06 01:47:14;;;;;;;5.07;0.98;;;;;;;14.19;65.28;93233.69;5062568;28;20099;-71
2023/11/06 01:49:41;;;;;;;9.23;0.93;;;;;;;14.20;70.46;93233.31;5062327;28;20039;-71
2023/11/06 01:52:12;;;;;;;5.30;1.10;;;;;;;14.17;74.88;93247.41;5062289;28;20029;-71
2023/11/06 01:54:38;;;;;;;5.07;1.48;;;;;;;14.11;77.90;93256.88;5062464;28;20028;-71
2023/11/06 01:57:04;;;;;;;6.90;1.95;;;;;;;14.03;79.23;93255.16;5062347;28;20311;-71
2023/11/06 01:59:29;;;;;;;3.25;1.15;;;;;;;13.86;68.97;93259.00;5061340;28;20024;-71
2023/11/06 02:02:05;;;;;;;6.00;2.35;;;;;;;13.73;74.18;93269.00;5063506;28;20043;-72
2023/11/06 02:04:31;;;;;;;6.57;2.08;;;;;;;13.78;76.22;93263.41;5066364;28;20066;-71
2023/11/06 02:06:57;;;;;;;5.97;1.60;;;;;;;13.71;71.10;93249.06;5066582;28;20310;-71
2023/11/06 02:09:25;;;;;;;6.60;1.65;;;;;;;13.73;65.15;93244.13;5066343;28;20051;-71
2023/11/06 02:11:51;;;;;;;5.85;1.40;;;;;;;13.90;67.83;93265.22;5065954;28;20029;-71
2023/11/06 02:14:16;;;;;;;7.38;1.67;;;;;;;13.87;65.33;93255.16;5066262;28;20028;-71
2023/11/06 02:16:41;;;;;;;5.03;2.72;;;;;;;13.90;67.48;93256.38;5066342;28;20307;-71
2023/11/06 02:19:07;;;;;;;4.93;1.45;;;;;;;13.92;68.09;93252.25;5066160;28;20017;-71
2023/11/06 02:21:34;;;;;;;6.38;1.70;;;;;;;13.85;71.42;93266.22;5065990;28;20028;-71
2023/11/06 02:24:00;;;;;;;1.80;1.00;;;;;;;13.88;62.72;93259.41;5066183;28;20027;-71
2023/11/06 02:26:25;;;;;;;6.28;1.58;;;;;;;14.10;58.36;93271.38;5066264;28;20307;-71
2023/11/06 02:28:52;;;;;;;5.93;0.90;;;;;;;14.42;53.74;93273.97;5065978;28;20272;-71
2023/11/06 02:31:17;;;;;;;2.33;0.45;;;;;;;14.58;53.57;93266.69;5065870;28;20063;-71
2023/11/06 02:33:42;;;;;;;6.72;0.73;;;;;;;14.68;52.54;93273.41;5065828;28;20092;-71
2023/11/06 02:36:09;;;;;;;6.43;1.13;;;;;;;14.73;50.75;93270.41;5065779;28;20053;-71
2023/11/06 02:38:35;;;;;;;3.47;0.65;;;;;;;14.85;49.58;93269.50;5065506;28;20048;-71
2023/11/06 02:41:01;;;;;;;1.50;0.65;;;;;;;14.92;49.99;93256.25;5065634;28;20043;-71
2023/11/06 02:43:26;;;;;;;4.28;0.65;;;;;;;14.97;48.44;93271.28;5064835;28;20175;-72
2023/11/06 02:45:52;;;;;;;2.15;0.52;;;;;;;15.04;46.49;93274.88;5065664;28;20021;-72
2023/11/06 02:48:18;;;;;;;3.72;1.27;;;;;;;15.12;59.23;93283.03;5065661;28;20095;-72
2023/11/06 02:50:44;;;;;;;3.33;1.52;;;;;;;14.93;61.59;93294.56;5065411;28;20188;-73
2023/11/06 02:53:10;;;;;;;8.25;1.67;;;;;;;14.82;62.44;93294.38;5065310;28;20021;-73
2023/11/06 02:55:35;;;;;;;4.07;1.38;;;;;;;14.63;70.19;93295.91;5065451;28;20029;-71
2023/11/06 02:58:01;;;;;;;6.35;1.42;;;;;;;14.31;64.02;93289.03;5065504;28;20029;-72
2023/11/06 03:00:26;;;;;;;4.15;1.20;;;;;;;14.24;59.52;93301.16;5065385;28;20024;-72
2023/11/06 03:02:53;;;;;;;4.60;1.30;;;;;;;14.22;68.89;93311.47;5065320;28;20028;-72
2023/11/06 03:05:18;;;;;;;8.27;1.67;;;;;;;13.97;72.12;93304.78;5065140;28;20101;-72
2023/11/06 03:07:44;;;;;;;12.68;2.10;;;;;;;13.82;73.36;93307.13;5065293;28;20020;-72
2023/11/06 03:10:11;;;;;;;4.25;1.48;;;;;;;13.70;73.07;93320.59;5064914;28;20021;-73
2023/11/06 03:12:36;;;;;;;7.40;2.10;;;;;;;13.60;69.07;93326.47;5063809;28;20029;-73
2023/11/06 03:15:02;;;;;;;4.55;1.33;;;;;;;13.57;65.43;93332.50;5064373;28;20195;-72
2023/11/06 03:17:27;;;;;;;5.70;1.83;;;;;;;13.46;70.55;93318.84;5065159;28;20021;-72
2023/11/06 03:19:53;;;;;;;5.82;1.88;;;;;;;13.30;72.70;93339.47;5064986;28;20255;-71
2023/11/06 03:22:18;;;;;;;5.57;1.85;;;;;;;13.31;73.48;93333.78;5064884;28;20311;-71
2023/11/06 03:24:44;;;;;;;5.88;1.60;;;;;;;13.26;68.75;93352.72;5065045;28;20035;-70
2023/11/06 03:27:09;;;;;;;3.83;1.15;;;;;;;13.28;59.13;93333.63;5064816;28;20032;-71
2023/11/06 03:29:35;;;;;;;4.07;0.80;;;;;;;13.44;59.22;93345.19;5064663;28;20029;-71
2023/11/06 03:32:00;;;;;;;6.47;1.20;;;;;;;13.55;59.68;93350.81;5064821;28;20025;-71
2023/11/06 03:34:26;;;;;;;6.22;1.40;;;;;;;13.56;58.22;93347.03;5063715;28;20020;-72
2023/11/06 03:36:52;;;;;;;4.75;1.05;;;;;;;13.83;50.95;93351.50;5064606;28;20036;-71
2023/11/06 03:39:19;;;;;;;4.55;1.20;;;;;;;13.94;57.20;93356.34;5064629;28;20096;-72
2023/11/06 03:41:45;;;;;;;7.38;1.35;;;;;;;13.90;61.57;93360.84;5064537;28;20025;-72
2023/11/06 03:44:10;;;;;;;7.88;0.98;;;;;;;13.80;59.18;93351.44;5064582;28;20027;-72
2023/11/06 03:46:36;;;;;;;5.90;1.40;;;;;;;13.78;63.31;93359.81;5064536;28;20089;-72
2023/11/06 03:49:01;;;;;;;5.57;1.40;;;;;;;13.76;65.45;93366.63;5064322;28;20024;-72
2023/11/06 03:51:27;;;;;;;14.68;2.10;;;;;;;13.69;66.27;93371.81;5064328;28;20319;-72
2023/11/06 03:53:52;;;;;;;5.50;2.15;;;;;;;13.59;69.91;93379.22;5064338;28;20025;-72
2023/11/06 03:56:17;;;;;;;8.45;2.60;;;;;;;13.45;73.66;93400.25;5064242;28;20029;-72
2023/11/06 03:58:43;;;;;;;6.25;2.20;;;;;;;13.38;74.30;93387.47;5064140;28;20315;-72
2023/11/06 04:01:08;;;;;;;9.98;3.35;;;;;;;13.30;75.26;93398.34;5064152;28;20363;-72
2023/11/06 04:03:34;;;;;;;6.43;2.83;;;;;;;13.22;76.80;93405.34;5064081;28;20028;-71
2023/11/06 04:06:00;;;;;;;7.75;3.40;;;;;;;13.10;77.37;93411.53;5064364;28;20024;-71
2023/11/06 04:08:26;;;;;;;6.63;2.85;;;;;;;13.01;78.37;93419.69;5064095;28;20025;-71
2023/11/06 04:10:51;;;;;;;4.80;1.52;;;;;;;12.87;66.15;93397.09;5063939;28;20230;-71
2023/11/06 04:13:17;;;;;;;6.60;2.05;;;;;;;12.83;66.53;93413.81;5063959;28;20087;-71
2023/11/06 04:15:42;;;;;;;10.07;1.08;;;;;;;13.19;52.73;93420.19;5063871;28;20262;-71
2023/11/06 04:18:08;;;;;;;2.85;0.45;;;;;;;13.85;48.19;93399.38;5063811;28;20327;-71
2023/11/06 04:20:35;;;;;;;4.13;0.90;;;;;;;14.14;47.88;93419.63;5063898;28;20017;-72
2023/11/06 04:23:00;;;;;;;12.10;0.82;;;;;;;14.38;45.48;93416.00;5064036;28;20020;-72
2023/11/06 04:25:26;;;;;;;8.93;1.27;;;;;;;14.53;45.47;93419.00;5063875;28;20065;-71
2023/11/06 04:27:51;;;;;;;8.85;1.40;;;;;;;14.44;57.05;93435.28;5063662;28;20298;-71
2023/11/06 04:30:17;;;;;;;7.55;1.90;;;;;;;14.16;57.41;93432.69;5063389;28;20075;-71
2023/11/06 04:32:42;;;;;;;5.15;1.02;;;;;;;14.17;54.78;93435.03;5063582;28;20025;-71
2023/11/06 04:35:08;;;;;;;5.53;1.90;;;;;;;14.20;59.26;93445.03;5063784;28;20074;-71
2023/11/06 04:37:34;;;;;;;3.53;1.65;;;;;;;14.18;64.24;93438.47;5063565;28;20302;-72
2023/11/06 04:40:00;;;;;;;7.55;2.30;;;;;;;14.08;66.22;93449.72;5063432;28;20044;-72
2023/11/06 04:42:26;;;;;;;8.50;2.00;;;;;;;13.98;67.96;93443.75;5063667;28;20223;-72
2023/11/06 04:44:51;;;;;;;11.00;1.73;;;;;;;13.87;66.90;93447.28;5063286;28;20096;-72
2023/11/06 04:47:17;;;;;;;6.90;1.73;;;;;;;13.69;65.79;93446.81;5063216;28;20346;-72
2023/11/06 04:49:43;;;;;;;8.40;1.73;;;;;;;13.58;66.59;93451.88;5061830;28;20033;-72
2023/11/06 04:52:08;;;;;;;6.80;2.03;;;;;;;13.48;69.25;93455.81;5063263;28;20024;-72
2023/11/06 04:54:33;;;;;;;9.95;2.83;;;;;;;13.39;71.21;93455.97;5063033;28;20077;-71
2023/11/06 04:56:59;;;;;;;5.63;2.60;;;;;;;13.30;72.07;93471.38;5063273;28;20031;-71
2023/11/06 04:59:24;;;;;;;14.50;3.20;;;;;;;13.24;73.22;93478.81;5061841;28;20213;-71
2023/11/06 05:01:50;;;;;;;8.23;3.10;;;;;;;13.16;73.78;93479.72;5062980;28;20232;-72
2023/11/06 05:04:16;;;;;;;13.75;2.75;;;;;;;13.04;74.13;93467.16;5061819;28;20017;-71
2023/11/06 05:06:42;;;;;;;7.85;2.75;;;;;;;12.97;70.49;93485.69;5062904;28;20016;-71
2023/11/06 05:09:08;;;;;;;7.53;2.47;;;;;;;12.87;72.66;93477.34;5062770;28;20092;-71
2023/11/06 05:11:34;;;;;;;8.68;0.70;;;;;;;12.82;59.43;93486.34;5063110;28;20270;-71
2023/11/06 05:13:59;;;;;;;5.25;2.00;;;;;;;12.97;65.17;93493.72;5062952;28;20020;-71
2023/11/06 05:16:27;;;;;;;8.45;2.33;;;;;;;12.97;71.82;93509.00;5062772;28;20067;-72
2023/11/06 05:18:52;;;;;;;8.30;2.10;;;;;;;12.91;74.48;93495.06;5062792;28;20024;-71
2023/11/06 05:21:25;;;;;;;11.25;2.55;;;;;;;12.72;67.50;93492.97;5062826;28;20029;-72
2023/11/06 05:23:51;;;;;;;6.07;1.15;;;;;;;12.77;64.66;93518.69;5062886;28;20104;-72
2023/11/06 05:26:17;;;;;;;7.35;2.28;;;;;;;12.78;67.98;93531.72;5062481;28;20032;-72
2023/11/06 05:28:43;;;;;;;9.88;3.13;;;;;;;12.72;72.83;93537.63;5062566;28;20028;-71
2023/11/06 05:31:09;;;;;;;5.82;2.03;;;;;;;12.58;74.24;93537.97;5062623;28;20032;-71
2023/11/06 05:33:35;;;;;;;10.32;2.63;;;;;;;12.60;73.75;93531.16;5062708;28;20046;-71
2023/11/06 05:36:01;;;;;;;11.25;3.08;;;;;;;12.66;74.70;93523.72;5062218;28;20096;-71
2023/11/06 05:38:27;;;;;;;6.85;2.25;;;;;;;12.66;68.37;93537.09;5062476;28;20044;-71
2023/11/06 05:40:52;;;;;;;12.35;2.13;;;;;;;12.74;66.91;93544.22;5062326;28;20024;-71
2023/11/06 05:43:17;;;;;;;10.63;3.55;;;;;;;12.84;70.69;93567.03;5062340;28;20064;-71
2023/11/06 05:45:43;;;;;;;21.85;5.10;;;;;;;12.89;73.02;93574.09;5062598;28;20028;-71
2023/11/06 05:48:08;;;;;;;8.80;3.85;;;;;;;12.87;74.19;93569.06;5062481;28;20311;-71
2023/11/06 05:50:35;;;;;;;11.25;4.40;;;;;;;12.87;75.43;93576.31;5062190;28;20086;-71
2023/11/06 05:53:00;;;;;;;10.30;4.10;;;;;;;12.89;76.64;93582.88;5062490;28;20025;-72
2023/11/06 05:55:25;;;;;;;14.30;4.43;;;;;;;12.82;77.02;93593.34;5061482;28;20129;-71
2023/11/06 05:57:51;;;;;;;7.82;4.25;;;;;;;12.80;77.47;93592.88;5062345;28;20338;-71
2023/11/06 06:00:16;;;;;;;10.20;4.07;;;;;;;12.78;77.53;93609.28;5062221;28;20021;-70
2023/11/06 06:02:42;;;;;;;8.68;4.28;;;;;;;12.81;77.67;93613.97;5061131;28;20036;-71
2023/11/06 06:05:08;;;;;;;6.40;3.17;;;;;;;12.76;77.81;93614.19;5062233;28;20025;-71
2023/11/06 06:07:33;;;;;;;13.18;4.38;;;;;;;12.73;77.49;93633.56;5062209;28;20219;-72
2023/11/06 06:09:58;;;;;;;11.35;3.70;;;;;;;12.73;77.34;93627.44;5062091;28;20028;-71
2023/11/06 06:12:24;;;;;;;11.98;3.55;;;;;;;12.70;77.24;93628.09;5062248;28;20027;-70
2023/11/06 06:14:50;;;;;;;9.98;3.70;;;;;;;12.75;78.57;93635.91;5094553;28;20283;-70
2023/11/06 06:17:16;;;;;;;11.52;3.97;;;;;;;12.76;78.83;93648.16;5062051;28;20087;-70
2023/11/06 06:19:41;;;;;;;10.18;4.53;;;;;;;12.78;78.92;93653.94;5062444;28;20025;-71
2023/11/06 06:22:07;;;;;;;10.60;3.83;;;;;;;12.81;79.69;93654.06;5062383;28;20028;-70
2023/11/06 06:24:32;;;;;;;8.70;3.38;;;;;;;12.88;79.53;93653.53;5062192;28;20266;-70
2023/11/06 06:26:58;;;;;;;4.53;2.60;;;;;;;12.89;79.09;93641.72;5062356;28;20208;-69
2023/11/06 06:29:24;;;;;;;12.43;2.60;;;;;;;12.92;78.47;93659.78;5062205;28;20196;-69
2023/11/06 06:31:53;;;;;;;10.75;2.85;;;;;;;12.96;77.84;93655.31;5062165;28;20047;-69
2023/11/06 06:34:20;;;;;;;10.68;2.53;;;;;;;12.97;77.95;93669.50;5061924;28;20048;-70
2023/11/06 06:36:45;;;;;;;6.78;1.90;;;;;;;13.03;77.36;93663.59;5062259;28;20035;-70
2023/11/06 06:39:10;;;;;;;12.82;2.30;;;;;;;13.09;76.66;93672.19;5062119;28;20044;-71
2023/11/06 06:41:36;;;;;;;4.72;1.80;;;;;;;13.13;76.26;93677.66;5061854;28;20025;-70
2023/11/06 06:44:01;;;;;;;8.25;2.10;;;;;;;13.21;75.55;93676.78;5060889;28;20020;-70
2023/11/06 06:46:27;;;;;;;8.75;2.20;;;;;;;13.26;75.10;93681.91;5062368;28;20025;-70
2023/11/06 06:48:52;;;;;;;6.78;2.00;;;;;;;13.35;75.32;93677.25;5063146;28;20319;-71
2023/11/06 06:51:17;;;;;;;8.88;2.15;;;;;;;13.50;76.35;93685.72;5065698;28;20030;-71
2023/11/06 06:53:43;;;;;;;13.55;2.13;;;;;;;13.55;75.51;93690.84;5065733;28;20070;-71
2023/11/06 06:56:09;;;;;;;8.68;2.00;;;;;;;13.64;74.95;93707.59;5065523;28;20219;-73
2023/11/06 06:58:34;;;;;;;5.43;1.98;;;;;;;13.69;75.01;93703.91;5065302;28;20029;-70
2023/11/06 07:00:59;;;;;;;10.13;2.33;;;;;;;13.79;74.32;93708.81;5065545;28;20047;-71
2023/11/06 07:03:25;;;;;;;5.63;2.30;;;;;;;13.85;74.05;93702.09;5064184;28;20099;-71
2023/11/06 07:05:50;;;;;;;10.25;2.28;;;;;;;13.94;73.33;93701.97;5097866;28;20425;-71
2023/11/06 07:08:15;;;;;;;7.15;2.40;;;;;;;14.00;72.24;93708.66;5065348;28;20036;-71
2023/11/06 07:10:41;;;;;;;7.43;2.78;;;;;;;14.04;70.91;93720.25;5065368;28;20032;-71
2023/11/06 07:13:06;;;;;;;9.20;2.67;;;;;;;14.08;70.41;93720.38;5065200;28;20318;-71
2023/11/06 07:15:32;;;;;;;9.52;2.95;;;;;;;14.11;69.65;93720.47;5065095;28;20021;-71
2023/11/06 07:17:59;;;;;;;10.73;2.75;;;;;;;14.13;69.54;93718.25;5065218;28;20029;-70
2023/11/06 07:20:24;;;;;;;12.77;2.65;;;;;;;14.22;69.43;93720.78;5065013;28;20017;-71
2023/11/06 07:22:49;;;;;;;8.93;2.60;;;;;;;14.28;68.84;93724.03;5064961;28;20071;-71
2023/11/06 07:25:18;;;;;;;8.80;1.92;;;;;;;14.37;68.08;93732.69;5065094;28;20029;-71
2023/11/06 07:27:43;;;;;;;10.18;2.40;;;;;;;14.42;67.64;93721.75;5064956;28;20021;-71
2023/11/06 07:30:10;;;;;;;7.50;2.38;;;;;;;14.47;67.51;93726.88;5064992;28;20230;-71
2023/11/06 07:32:36;;;;;;;9.13;2.70;;;;;;;14.40;67.64;93726.66;5064755;28;20187;-71
2023/11/06 07:35:01;;;;;;;10.20;2.75;;;;;;;14.46;67.60;93730.66;5064932;28;20029;-71
2023/11/06 07:37:28;;;;;;;8.35;2.30;;;;;;;14.54;67.58;93726.28;5064959;28;20029;-71
2023/11/06 07:39:53;;;;;;;14.35;2.65;;;;;;;14.63;67.77;93726.94;5064369;28;20234;-71
2023/11/06 07:42:18;;;;;;;5.68;2.53;;;;;;;14.69;67.84;93733.63;5065423;28;20020;-88
2023/11/06 07:44:44;;;;;;;6.70;2.45;;;;;;;14.74;67.32;93729.94;5065709;28;20021;-89
2023/11/06 07:47:09;;;;;;;20.20;3.17;;;;;;;14.80;67.00;93729.34;5066302;28;20052;-86
2023/11/06 07:49:35;;;;;;;10.90;3.92;;;;;;;14.89;67.03;93736.47;5065662;28;20029;-88
2023/11/06 07:52:06;;;;;;;11.90;2.63;;;;;;;14.91;67.11;93734.22;5065519;28;20028;-90
2023/11/06 07:55:04;;;;;;;9.52;2.40;;;;;;;14.96;66.98;93739.31;5064835;28;20311;-96
2023/11/06 07:57:31;;;;;;;13.73;2.88;;;;;;;15.04;66.50;93744.53;5056681;28;20345;-84
2023/11/06 07:59:57;;;;;;;12.40;2.90;;;;;;;15.08;66.54;93747.31;5064057;28;20084;-82
2023/11/06 08:02:22;;;;;;;7.97;2.63;;;;;;;15.12;65.86;93742.84;5064444;28;20032;-81
2023/11/06 08:04:51;;;;;;;14.60;3.53;;;;;;;15.13;65.94;93741.69;5062950;28;20067;-81
2023/11/06 08:07:20;;;;;;;13.50;2.78;;;;;;;15.19;64.88;93750.28;5063983;28;20021;-80
2023/11/06 08:09:46;;;;;;;6.82;2.75;;;;;;;15.24;64.56;93753.50;5064234;28;20021;-82
2023/11/06 08:12:14;;;;;;;13.23;3.20;;;;;;;15.24;64.24;93736.59;5062929;28;20055;-81
2023/11/06 08:14:39;;;;;;;10.00;2.78;;;;;;;15.09;61.62;93737.38;5062865;28;20310;-82
2023/11/06 08:17:07;;;;;;;8.13;2.10;;;;;;;15.16;61.00;93745.59;5062684;28;20104;-78
2023/11/06 08:19:38;;;;;;;10.15;2.35;;;;;;;15.29;60.62;93749.00;5063688;28;20013;-81
2023/11/06 08:22:07;;;;;;;9.85;2.53;;;;;;;15.37;59.79;93754.19;5064012;28;20021;-83
2023/11/06 08:24:33;;;;;;;9.18;1.88;;;;;;;15.40;60.03;93745.44;5062561;28;20021;-82
2023/11/06 08:26:59;;;;;;;8.25;2.10;;;;;;;15.50;59.41;93748.75;5063984;28;20021;-79
2023/11/06 08:29:24;;;;;;;16.75;2.55;;;;;;;15.56;59.46;93750.81;5096031;28;20382;-79
2023/11/06 08:31:50;;;;;;;16.77;3.30;;;;;;;15.67;58.62;93744.94;5063590;28;20032;-78
2023/11/06 08:34:15;;;;;;;12.27;2.88;;;;;;;15.75;58.06;93766.28;5096060;28;20103;-79
2023/11/06 08:36:44;;;;;;;11.65;2.65;;;;;;;15.82;58.26;93753.00;5096053;28;20013;-80
2023/11/06 08:39:10;;;;;;;9.88;2.20;;;;;;;15.89;58.25;93755.06;5063374;28;20048;-80
2023/11/06 08:41:36;;;;;;;9.98;2.30;;;;;;;15.98;57.06;93757.59;5063385;28;20325;-81
2023/11/06 08:44:01;;;;;;;10.35;1.73;;;;;;;16.05;56.35;93761.22;5095904;28;20188;-79
2023/11/06 08:46:27;;;;;;;8.35;3.53;;;;;;;16.09;54.64;93769.38;5063494;28;20350;-80
2023/11/06 08:48:52;;;;;;;11.35;1.88;;;;;;;15.95;53.61;93759.06;5061921;28;20092;-79
2023/11/06 08:51:17;;;;;;;16.05;2.00;;;;;;;16.05;54.42;93760.44;5062147;28;20245;-80
2023/11/06 08:53:46;;;;;;;5.43;1.95;;;;;;;16.17;54.07;93771.09;5095578;28;20025;-80
2023/11/06 08:56:11;;;;;;;16.23;4.35;;;;;;;16.18;53.04;93761.91;5095417;28;20376;-79
2023/11/06 08:58:38;;;;;;;11.65;1.95;;;;;;;16.21;53.22;93771.94;5095536;28;20096;-82
2023/11/06 09:01:08;;;;;;;14.30;2.33;;;;;;;16.33;52.26;93772.97;5062028;28;20104;-78
2023/11/06 09:03:33;;;;;;;10.82;1.90;;;;;;;16.39;52.13;93763.50;5063063;28;20066;-79
2023/11/06 09:05:58;;;;;;;10.25;2.00;;;;;;;16.46;51.90;93782.47;5062992;28;20258;-79
2023/11/06 09:08:24;;;;;;;9.35;2.15;;;;;;;16.52;52.60;93770.28;5061687;28;20067;-79
2023/11/06 09:10:49;;;;;;;5.63;1.25;;;;;;;16.50;49.87;93766.41;5061427;28;20305;-81
2023/11/06 09:13:16;;;;;;;9.57;2.03;;;;;;;16.56;50.64;93752.31;5061422;28;20093;-78
2023/11/06 09:15:41;;;;;;;15.30;2.42;;;;;;;16.71;50.70;93774.13;5062884;28;20029;-80
2023/11/06 09:18:07;;;;;;;8.18;1.92;;;;;;;16.83;48.77;93787.47;5061641;28;20091;-81
2023/11/06 09:20:33;;;;;;;8.65;2.05;;;;;;;16.67;48.95;93775.97;5062843;28;20027;-82
2023/11/06 09:23:00;;;;;;;10.02;1.80;;;;;;;16.70;48.37;93777.97;5062896;28;20048;-80
2023/11/06 09:25:26;;;;;;;11.80;1.85;;;;;;;16.78;47.95;93787.75;5063118;28;20029;-80
2023/11/06 09:27:52;;;;;;;12.73;2.42;;;;;;;16.88;48.04;93783.75;5062952;28;20044;-79
2023/11/06 09:30:17;;;;;;;10.50;2.13;;;;;;;16.90;48.41;93768.78;5061452;28;20024;-80
2023/11/06 09:32:43;;;;;;;6.75;1.77;;;;;;;16.98;49.29;93773.19;5095236;28;20214;-81
2023/11/06 09:35:09;;;;;;;8.90;2.03;;;;;;;17.10;47.46;93769.56;5062368;28;20345;-79
2023/11/06 09:37:34;;;;;;;9.27;1.95;;;;;;;17.23;48.39;93775.56;5062563;28;20338;-78
2023/11/06 09:40:01;;;;;;;9.98;1.92;;;;;;;17.36;47.66;93773.47;5062554;28;20057;-78
2023/11/06 09:42:27;;;;;;;7.75;1.70;;;;;;;17.46;47.43;93770.19;5062608;28;20028;-77
2023/11/06 09:44:54;;;;;;;9.18;2.08;;;;;;;17.54;47.30;93773.78;5062377;28;20049;-77
2023/11/06 09:47:19;;;;;;;6.03;2.08;;;;;;;17.62;44.84;93764.69;5062370;28;20096;-78
2023/11/06 09:50:10;;;;;;;9.05;1.88;;;;;;;17.73;46.43;93765.66;5062266;28;20036;-79
2023/11/06 09:52:36;;;;;;;10.38;1.92;;;;;;;17.84;45.83;93772.00;5062510;28;20025;-79
2023/11/06 09:55:02;;;;;;;6.50;1.70;;;;;;;17.92;44.67;93767.53;5062381;28;20021;-79
2023/11/06 09:57:30;;;;;;;11.55;1.70;;;;;;;18.02;45.84;93766.13;5062299;28;20781;-78
2023/11/06 09:59:56;;;;;;;16.58;2.95;;;;;;;18.13;44.92;93772.44;5061312;28;20175;-80
2023/11/06 10:02:22;;;;;;;10.63;2.38;;;;;;;18.25;43.27;93769.53;5061208;28;20092;-82
2023/11/06 10:04:48;;;;;;;5.85;1.67;;;;;;;18.30;44.40;93757.69;5062365;28;20033;-82
2023/11/06 10:07:40;;;;;;;6.55;1.90;;;;;;;18.28;43.84;93757.28;5062289;28;20021;-81
2023/11/06 10:10:19;;;;;;;8.40;1.88;;;;;;;18.39;43.86;93749.31;5061696;28;20035;-81
2023/11/06 10:12:45;;;;;;;9.38;2.85;;;;;;;18.51;43.08;93754.50;5062160;28;20025;-81
2023/11/06 10:15:27;;;;;;;10.40;1.95;;;;;;;18.63;43.32;93748.09;5062189;28;20344;-82
2023/11/06 10:17:56;;;;;;;8.15;1.75;;;;;;;18.60;43.57;93746.91;5062467;28;20041;-88
2023/11/06 10:20:26;;;;;;;6.00;1.63;;;;;;;18.74;40.29;93742.81;5095152;28;20142;-76
2023/11/06 10:22:55;;;;;;;4.75;1.60;;;;;;;18.84;37.67;93750.31;5063020;28;20092;-71
2023/11/06 10:25:27;;;;;;;6.32;1.33;;;;;;;18.87;34.25;93746.88;5066123;28;20032;-72
2023/11/06 10:27:54;;;;;;;4.28;1.00;;;;;;;18.94;34.62;93746.94;5064803;28;20052;-71
2023/11/06 10:30:19;;;;;;;6.78;1.00;;;;;;;19.03;33.77;93752.06;5065717;28;20032;-73
2023/11/06 10:32:45;;;;;;;7.35;1.33;;;;;;;19.10;33.76;93741.34;5065940;28;20028;-72
2023/11/06 10:35:23;;;;;;;2.50;0.70;;;;;;;19.12;32.94;93732.88;5064709;28;20338;-71
2023/11/06 10:37:50;;;;;;;4.97;1.02;;;;;;;19.11;33.14;93732.09;5065953;28;20255;-71
2023/11/06 10:40:19;;;;;;;3.25;1.00;;;;;;;19.11;33.23;93737.50;5064160;28;20104;-72
2023/11/06 10:42:48;;;;;;;3.92;1.45;;;;;;;19.15;34.34;93738.31;5063013;28;20032;-71
2023/11/06 10:45:18;;;;;;;5.07;1.15;;;;;;;19.20;34.25;93735.28;5061814;28;20017;-72
2023/11/06 10:47:59;;;;;;;3.00;0.90;;;;;;;19.14;32.98;93741.38;5062331;28;20227;-72
2023/11/06 10:50:25;;;;;;;9.80;2.57;;;;;;;19.13;33.43;93729.00;5063048;28;20067;-71
2023/11/06 10:52:54;;;;;;;2.35;0.73;;;;;;;19.18;34.04;93731.38;5063856;28;20279;-72
2023/11/06 10:55:24;;;;;;;7.55;1.27;;;;;;;19.27;33.25;93734.56;5064852;28;20334;-72
2023/11/06 10:57:54;;;;;;;3.30;0.75;;;;;;;19.38;33.98;93721.94;5064917;28;20046;-71
2023/11/06 11:00:20;;;;;;;4.75;1.25;;;;;;;19.50;33.46;93722.81;5065380;28;20212;-72
2023/11/06 11:02:56;;;;;;;7.57;1.10;;;;;;;19.57;33.54;93725.56;5065285;28;20020;-72
2023/11/06 11:05:29;;;;;;;5.50;1.00;;;;;;;19.57;33.81;93726.34;5065155;28;20037;-72
2023/11/06 11:07:56;;;;;;;5.53;1.23;;;;;;;19.69;33.81;93729.94;5065149;28;20025;-71
2023/11/06 11:10:26;;;;;;;6.72;1.23;;;;;;;19.75;33.66;93731.94;5064942;28;20051;-72
2023/11/06 11:12:55;;;;;;;3.22;1.20;;;;;;;19.70;33.00;93734.97;5064839;28;20036;-72
2023/11/06 11:15:32;;;;;;;2.90;0.90;;;;;;;19.68;32.38;93729.13;5065009;28;20033;-71
2023/11/06 11:18:13;;;;;;;3.85;0.93;;;;;;;19.76;32.39;93730.81;5064918;28;20028;-71
2023/11/06 11:20:58;;;;;;;5.13;0.68;;;;;;;19.91;32.06;93745.19;5064950;28;20047;-73
2023/11/06 11:23:39;;;;;;;3.65;1.27;;;;;;;19.97;32.02;93749.13;5064613;28;20250;-72
2023/11/06 11:26:09;;;;;;;6.30;1.40;;;;;;;19.93;30.92;93742.13;5063716;28;20025;-72
2023/11/06 11:28:57;;;;;;;7.18;0.93;;;;;;;20.01;32.51;93739.09;5064759;28;20029;-72